Hovedside
METAR-TAF:

METAR-TAF

Lufthavner :

Honiara internasjonale lufthavn

Honiara, Guadalcanal, Salomonøyene

breddegrad: 09-25S, lengdegrad: 160-03E, høyde over havet: 8 m

Gjeldene værobservasjon

Denne rapporten ble laget for 30 minutter siden, klokken 01:00 UTC
Vind 6 kt fra Nord
Temperatur 31°C
Luftfuktighet 66%
Trykk 1007 hPa
Sikt 10 km eller mer
Få skyer i en høyde av 2000 ft
Brutte skyer i en høyde av 30000 ft
dis

METAR: AGGH 170100Z 36006KT 9999 HZ FEW020 BKN300 31/24 Q1007

Tid: 12:30 (01:30 UTC)

Varsel

Denne rapporten ble laget for 2 timer og 20 minutter siden, klokken 23:10 UTC
Varsel gyldig fra 17. klokken 00 UTC til 17. klokken 24 UTC
Vind 3 kt fra skiftende retning
Sikt 10 km eller mer
Få skyer i en høyde av 2000 ft
Fra 17. klokken 0300 UTC
Vind 8 kt fra Nord-nordøst
Sikt: 1009 m
Få skyer i en høyde av 1900 ft

TAF: AGGH 162310Z 1700/1724 VRB03KT 9999 FEW020 FM170300 02008KT 9999 FEW019 T 31 32 29 26 Q 1009 1007 1007 1009

Værobservasjoner og værvarsel for over 4000 flyplasser (METAR- og TAF-rapporter).

Tilgjengelige stasjoner er representert av de røde og gule prikkene på kartet.

Hold musepekeren over prikken for å se navnet på stasjonen.

Klikk så for å se værobservasjoner og -varsler.

For å forandre kartet kan du klikke på den grønne knappen med svart kryss for å zoome inn, på den grønne knappen med strek for å zoome ut, eller på de grønne pilene for å se tilstøtende kart.


METAR-TAF: